Disclaimer

Please do not use the information listed here in-flight or in-navigation, as they are not provided to us by the airports but are provided by volunteers, so they might be outdated.

Search


Regions


Airport information page

No radio frequency information is available.

Airport informations:
Latitude: 00° 08' 54.31" S
Longitude: 066° 59' 08.12" W
Elevation: 249 feet - 76 meters
Operating hours: Remarks
Operating agency: Civil government, landing fees and diplomatic clearance may be required
Timezone: UTC-4(-3DT)
Fuel: Jet A1, without icing nhibitor.

100/130 octane gasoline, leaded, MIL-L-5572F (GREEN)

Runway information:
05/23 - 8530 x 148 feet< - >2600 x 45 meters

Recent METARs:
SBUA 201900Z 23006KT 9999 SCT024 32/26 Q1006
SBUA 202000Z 22004KT 9999 SCT024 32/25 Q1006
SBUA 202000Z 22004KT 9999 SCT024 32/25 Q1006

Airport on the map: